createdAt,value
2019-03-20T00:01:13.810Z,101374.20
2019-03-20T00:03:47.437Z,101371.59
2019-03-20T00:06:20.637Z,101376.74
2019-03-20T00:08:54.353Z,101380.34
2019-03-20T00:11:27.959Z,101376.30
2019-03-20T00:14:01.462Z,101376.37
2019-03-20T00:16:34.847Z,101372.94
2019-03-20T00:19:09.673Z,101376.75
2019-03-20T00:21:42.999Z,101385.28
2019-03-20T00:24:16.494Z,101383.17
2019-03-20T00:26:49.561Z,101387.48
2019-03-20T00:29:24.051Z,101389.84
2019-03-20T00:31:57.490Z,101388.54
2019-03-20T00:34:32.389Z,101382.94
2019-03-20T00:37:05.539Z,101380.34
2019-03-20T00:39:38.309Z,101373.67
2019-03-20T00:42:12.179Z,101370.75
2019-03-20T00:44:45.515Z,101370.49
2019-03-20T00:47:18.885Z,101374.48
2019-03-20T00:49:51.754Z,101366.99
2019-03-20T00:52:24.737Z,101370.83
2019-03-20T00:54:58.196Z,101367.09
2019-03-20T00:57:30.967Z,101359.02
2019-03-20T01:00:05.124Z,101365.41
2019-03-20T01:02:38.449Z,101354.02
2019-03-20T01:05:12.748Z,101351.28
2019-03-20T01:07:46.092Z,101355.67
2019-03-20T01:10:19.643Z,101354.03
2019-03-20T01:12:52.703Z,101354.02
2019-03-20T01:15:25.437Z,101352.97
2019-03-20T01:17:59.004Z,101354.56
2019-03-20T01:20:32.313Z,101360.70
2019-03-20T01:23:06.299Z,101355.27
2019-03-20T01:25:40.636Z,101362.34
2019-03-20T01:28:15.060Z,101360.75
2019-03-20T01:30:47.934Z,101346.54
2019-03-20T01:33:20.233Z,101351.92
2019-03-20T01:35:52.822Z,101352.98
2019-03-20T01:38:25.456Z,101359.22
2019-03-20T01:40:58.345Z,101356.23
2019-03-20T01:43:31.337Z,101352.45
2019-03-20T01:46:04.460Z,101357.59
2019-03-20T01:48:37.342Z,101360.61
2019-03-20T01:51:28.952Z,101369.72
2019-03-20T01:54:01.843Z,101369.41
2019-03-20T01:56:34.966Z,101373.19
2019-03-20T01:59:07.484Z,101364.64
2019-03-20T02:01:41.604Z,101359.51
2019-03-20T02:04:14.658Z,101354.70
2019-03-20T02:06:47.381Z,101353.31
2019-03-20T02:09:20.917Z,101352.78
2019-03-20T02:11:53.968Z,101353.02
2019-03-20T02:14:27.078Z,101359.78
2019-03-20T02:17:00.354Z,101361.17
2019-03-20T02:19:33.355Z,101363.05
2019-03-20T02:22:06.734Z,101377.27
2019-03-20T02:24:40.474Z,101366.27
2019-03-20T02:27:14.258Z,101370.83
2019-03-20T02:29:47.792Z,101371.89
2019-03-20T02:32:20.217Z,101364.89
2019-03-20T02:34:53.628Z,101366.02
2019-03-20T02:37:27.560Z,101377.27
2019-03-20T02:40:02.291Z,101375.67
2019-03-20T02:42:37.548Z,101379.91
2019-03-20T02:45:11.803Z,101371.31
2019-03-20T02:47:45.013Z,101372.42
2019-03-20T02:50:19.497Z,101370.02
2019-03-20T02:52:55.007Z,101372.21
2019-03-20T02:55:28.943Z,101372.05
2019-03-20T02:58:02.402Z,101374.27
2019-03-20T03:00:35.400Z,101370.45
2019-03-20T03:03:08.481Z,101370.17
2019-03-20T03:05:42.160Z,101365.08
2019-03-20T03:08:15.202Z,101365.33
2019-03-20T03:10:48.699Z,101362.64
2019-03-20T03:13:21.959Z,101368.58
2019-03-20T03:15:55.640Z,101363.21
2019-03-20T03:18:28.853Z,101363.80
2019-03-20T03:21:02.181Z,101364.90
2019-03-20T03:23:36.169Z,101364.34
2019-03-20T03:26:09.702Z,101360.88
2019-03-20T03:28:43.156Z,101364.12
2019-03-20T18:11:07.956Z,101574.22
2019-03-20T18:13:41.973Z,101583.66
2019-03-20T18:16:15.409Z,101582.25
2019-03-20T18:18:48.589Z,101594.20
2019-03-20T18:21:22.105Z,101605.23
2019-03-20T18:23:55.293Z,101606.53
2019-03-20T18:26:29.319Z,101610.05
2019-03-20T18:29:01.887Z,101602.36
2019-03-20T18:31:34.701Z,101608.38
2019-03-20T18:34:07.861Z,101613.95
2019-03-20T18:36:41.493Z,101618.97
2019-03-20T18:39:15.332Z,101625.58
2019-03-20T18:41:57.406Z,101628.86
2019-03-20T18:44:24.588Z,101633.37
2019-03-20T18:46:57.731Z,101633.48
2019-03-20T18:49:31.238Z,101632.73
2019-03-20T18:52:04.614Z,101635.45
2019-03-20T18:54:38.089Z,101633.75
2019-03-20T18:57:11.112Z,101636.59
2019-03-20T18:59:44.194Z,101631.77
2019-03-20T19:02:17.735Z,101633.30
2019-03-20T19:04:51.695Z,101631.94
2019-03-20T19:07:25.027Z,101634.01
2019-03-20T19:09:58.659Z,101636.47
2019-03-20T19:12:31.778Z,101642.88
2019-03-20T19:15:04.877Z,101641.46
2019-03-20T19:17:38.314Z,101638.04
2019-03-20T19:20:11.821Z,101633.09
2019-03-20T19:22:45.387Z,101632.52
2019-03-20T19:25:19.002Z,101637.72
2019-03-20T19:27:52.575Z,101640.44
2019-03-20T19:30:26.113Z,101642.83
2019-03-20T19:32:59.735Z,101640.92
2019-03-20T19:35:32.739Z,101641.62
2019-03-20T19:38:08.440Z,101636.58
2019-03-20T19:40:41.917Z,101640.88
2019-03-20T19:43:14.579Z,101643.05
2019-03-20T19:45:48.083Z,101638.66
2019-03-20T19:48:21.620Z,101641.53
2019-03-20T19:50:55.098Z,101639.19
2019-03-20T19:53:28.161Z,101641.32
2019-03-20T19:56:02.012Z,101636.76
2019-03-20T19:58:35.136Z,101641.25
2019-03-20T20:01:09.143Z,101636.59
2019-03-20T20:03:42.179Z,101639.78
2019-03-20T20:06:15.807Z,101636.58
2019-03-20T20:08:49.769Z,101628.98
2019-03-20T20:11:24.341Z,101632.61
2019-03-20T20:13:56.926Z,101631.62
2019-03-20T20:16:30.404Z,101635.70
2019-03-20T20:19:04.301Z,101632.67
2019-03-20T20:21:37.276Z,101638.21
2019-03-20T20:24:10.530Z,101632.45
2019-03-20T20:26:44.507Z,101634.45
2019-03-20T20:29:17.813Z,101630.61
2019-03-20T20:31:50.820Z,101632.45
2019-03-20T20:34:24.780Z,101633.59
2019-03-20T20:36:58.494Z,101632.52
2019-03-20T20:39:31.926Z,101640.12
2019-03-20T20:42:05.118Z,101641.25
2019-03-20T20:44:38.182Z,101646.04
2019-03-20T20:47:11.284Z,101641.91
2019-03-20T20:49:44.413Z,101636.38
2019-03-20T20:52:19.661Z,101636.31
2019-03-20T20:54:53.089Z,101634.15
2019-03-20T20:57:26.188Z,101630.23
2019-03-20T20:59:59.819Z,101636.76
2019-03-20T21:02:33.489Z,101634.95
2019-03-20T21:05:06.596Z,101636.76
2019-03-20T21:07:41.507Z,101639.02
2019-03-20T21:10:14.387Z,101644.63
2019-03-20T21:12:56.171Z,101637.73
2019-03-20T21:15:37.383Z,101642.30
2019-03-20T21:19:03.282Z,101640.39
2019-03-20T21:21:43.860Z,101641.59
2019-03-20T21:24:22.608Z,101642.85
2019-03-20T21:27:40.003Z,101646.76
2019-03-20T21:30:40.667Z,101637.34
2019-03-20T21:33:39.240Z,101637.73
2019-03-20T21:37:08.186Z,101638.23
2019-03-20T21:39:42.033Z,101639.03
2019-03-20T21:43:08.152Z,101639.52
2019-03-20T21:46:31.890Z,101637.13
2019-03-20T21:49:06.495Z,101637.52
2019-03-20T21:51:40.176Z,101639.86
2019-03-20T21:55:13.078Z,101649.14
2019-03-20T21:57:52.924Z,101649.91
2019-03-20T22:01:35.887Z,101662.14
2019-03-20T22:04:09.909Z,101662.62
2019-03-20T22:07:10.797Z,101660.55
2019-03-20T22:10:37.311Z,101655.61
2019-03-20T22:13:31.499Z,101667.03
2019-03-20T22:17:07.077Z,101659.80
2019-03-20T22:19:58.313Z,101665.24
2019-03-20T22:23:27.627Z,101664.14
2019-03-20T22:26:21.194Z,101670.22
2019-03-20T22:29:24.387Z,101664.52
2019-03-20T22:32:47.651Z,101657.56
2019-03-20T22:35:38.237Z,101662.36
2019-03-20T22:39:03.349Z,101660.83
2019-03-20T22:42:19.144Z,101663.55
2019-03-20T22:45:12.704Z,101663.06
2019-03-20T22:48:29.435Z,101661.21
2019-03-20T22:51:31.755Z,101668.00
2019-03-20T22:54:41.015Z,101668.00
2019-03-20T22:57:24.976Z,101666.96
2019-03-20T22:59:58.671Z,101672.72
2019-03-20T23:02:43.452Z,101668.09
2019-03-20T23:05:17.344Z,101668.27
2019-03-20T23:07:50.547Z,101667.09
2019-03-20T23:10:24.448Z,101665.71
2019-03-20T23:12:58.700Z,101670.72
2019-03-20T23:15:32.673Z,101667.13
2019-03-20T23:18:06.297Z,101668.59
2019-03-20T23:20:39.978Z,101676.43
2019-03-20T23:23:13.372Z,101669.62
2019-03-20T23:25:47.007Z,101679.19
2019-03-20T23:28:20.713Z,101671.62
2019-03-20T23:30:55.165Z,101670.06
2019-03-20T23:33:29.510Z,101665.98
2019-03-20T23:36:03.864Z,101674.45
2019-03-20T23:38:37.486Z,101674.00
2019-03-20T23:41:11.745Z,101677.20
2019-03-20T23:43:52.983Z,101672.58
2019-03-20T23:46:21.822Z,101670.04
2019-03-20T23:49:04.353Z,101669.89
2019-03-20T23:51:37.954Z,101666.69
2019-03-20T23:54:12.432Z,101667.32
2019-03-20T23:56:46.855Z,101666.34
2019-03-20T23:59:20.644Z,101665.67
